Terminal Aerodrome Forecast
Issued by NWS Chicago, IL

Home | Current Version | Previous Version | Graphics & Text | Print | Product List | Glossary On
Versions: 1 2 3 4 5 6 7 8 9 10 11 12 13 14 15 16 17 18 19 20 21 22 23 24 25 26 27 28 29 30 31 32 33 34 35 36 37 38 39
000
FTUS43 KLOT 130100 AAB
TAFRFD
TAF AMD
KRFD 130157Z 1302/1324 17007KT 5SM SHRA VCTS OVC035CB
     FM130230 24010G17KT 3SM TSRA OVC015CB
      TEMPO 1303/1305 1SM TSRA OVC009CB
     FM130600 31005KT P6SM BKN015
     FM131100 29009KT P6SM SCT020
     FM131800 28010G17KT P6SM SCT045=

USA.gov is the U.S. government's official web portal to all federal, state and local government web resources and services.